Time;durP1;ratioP1;P1;durP2;ratioP2;P2;SDS_P1;SDS_P2;PMS_P1;PMS_P2;Temp;Humidity;BMP_temperature;BMP_pressure;BME280_temperature;BME280_humidity;BME280_pressure;Samples;Min_cycle;Max_cycle;Signal;HPM_P1;HPM_P2
2023/02/18 00:01:24;;;;;;;10.60;5.13;;;;;;;10.39;67.35;100272.28;5031885;28;20115;-81
2023/02/18 00:03:51;;;;;;;19.48;5.10;;;;;;;10.39;67.48;100274.94;5031743;28;20049;-81
2023/02/18 00:06:22;;;;;;;17.48;6.60;;;;;;;10.38;67.88;100260.03;5031248;28;20057;-81
2023/02/18 00:08:50;;;;;;;16.70;5.43;;;;;;;10.39;67.92;100254.72;5031291;28;20050;-80
2023/02/18 00:11:18;;;;;;;15.48;6.10;;;;;;;10.39;67.85;100257.34;5031415;28;20045;-81
2023/02/18 00:13:53;;;;;;;21.42;7.28;;;;;;;10.36;68.59;100249.59;5031291;28;20045;-81
2023/02/18 00:16:20;;;;;;;19.60;8.00;;;;;;;10.39;68.30;100248.63;5011482;28;20050;-81
2023/02/18 00:18:47;;;;;;;19.85;8.32;;;;;;;10.37;68.58;100256.56;5010013;28;20049;-81
2023/02/18 00:21:14;;;;;;;17.67;8.20;;;;;;;10.35;68.71;100261.03;5028409;28;20136;-81
2023/02/18 00:23:40;;;;;;;24.30;10.23;;;;;;;10.35;68.83;100252.31;5031176;28;20059;-80
2023/02/18 00:26:14;;;;;;;20.77;9.90;;;;;;;10.30;69.50;100266.53;5030629;28;20060;-81
2023/02/18 00:28:41;;;;;;;22.65;10.13;;;;;;;10.33;69.17;100264.69;5030735;28;20144;-81
2023/02/18 00:31:30;;;;;;;20.13;9.70;;;;;;;10.32;69.87;100262.97;5031078;28;20683;-81
2023/02/18 00:33:58;;;;;;;22.73;12.05;;;;;;;10.35;70.22;100252.31;5030893;28;20107;-80
2023/02/18 00:36:26;;;;;;;24.20;12.90;;;;;;;10.35;70.52;100247.88;5030915;28;20056;-81
2023/02/18 00:38:55;;;;;;;31.08;13.40;;;;;;;10.36;70.93;100254.00;5030777;28;20052;-80
2023/02/18 00:41:25;;;;;;;26.25;13.32;;;;;;;10.38;70.86;100242.47;5011623;28;20124;-81
2023/02/18 00:43:52;;;;;;;24.92;13.90;;;;;;;10.42;70.94;100243.19;5030812;28;20444;-81
2023/02/18 00:46:19;;;;;;;22.48;13.80;;;;;;;10.45;70.88;100243.06;5030296;28;20049;-81
2023/02/18 00:48:46;;;;;;;27.05;15.82;;;;;;;10.48;71.28;100237.66;5009402;28;20056;-80
2023/02/18 00:51:13;;;;;;;27.45;15.90;;;;;;;10.51;71.62;100234.03;5009591;28;20141;-81
2023/02/18 00:53:40;;;;;;;27.08;17.15;;;;;;;10.55;71.80;100239.03;5009704;28;20049;-81
2023/02/18 00:56:06;;;;;;;35.17;18.52;;;;;;;10.60;71.97;100224.81;5026392;28;20049;-81
2023/02/18 00:58:35;;;;;;;32.42;18.63;;;;;;;10.61;72.43;100234.44;5012638;28;20049;-80
2023/02/18 01:01:02;;;;;;;29.52;19.38;;;;;;;10.65;71.88;100235.97;5030670;28;20414;-81
2023/02/18 01:03:32;;;;;;;36.70;19.27;;;;;;;10.69;72.24;100241.00;5030566;28;20059;-81
2023/02/18 01:05:58;;;;;;;27.70;19.63;;;;;;;10.72;72.10;100231.25;5030282;28;20123;-80
2023/02/18 01:08:25;;;;;;;34.17;19.73;;;;;;;10.75;72.08;100223.19;5030232;28;20049;-81
2023/02/18 01:10:54;;;;;;;30.00;19.38;;;;;;;10.77;72.14;100237.16;5030510;28;20103;-80
2023/02/18 01:13:21;;;;;;;31.52;19.20;;;;;;;10.79;72.13;100235.28;5030439;28;20049;-80
2023/02/18 01:15:47;;;;;;;28.17;18.63;;;;;;;10.81;72.10;100238.69;5029945;28;20501;-81
2023/02/18 01:18:14;;;;;;;35.30;20.40;;;;;;;10.81;72.38;100234.25;5029924;28;20529;-81
2023/02/18 01:20:42;;;;;;;39.33;21.23;;;;;;;10.84;72.51;100233.25;5030611;28;20666;-80
2023/02/18 01:23:09;;;;;;;29.10;20.02;;;;;;;10.86;72.47;100226.16;5028990;28;20503;-80
2023/02/18 01:25:37;;;;;;;31.23;20.20;;;;;;;10.88;72.78;100226.06;5029705;28;20059;-81
2023/02/18 01:28:06;;;;;;;35.03;20.92;;;;;;;10.91;72.75;100212.72;5032223;28;20504;-81
2023/02/18 01:30:33;;;;;;;30.92;20.55;;;;;;;10.94;72.73;100208.16;5035610;28;20053;-81
2023/02/18 01:32:59;;;;;;;37.20;21.38;;;;;;;10.97;72.67;100209.78;5030424;28;20505;-80
2023/02/18 01:35:26;;;;;;;35.35;23.17;;;;;;;10.99;72.71;100202.66;5030197;28;20057;-81
2023/02/18 01:37:52;;;;;;;42.95;23.90;;;;;;;11.02;72.88;100215.66;5029890;28;20053;-81
2023/02/18 01:40:23;;;;;;;34.45;21.63;;;;;;;11.03;72.92;100214.72;5030330;28;20144;-81
2023/02/18 01:42:49;;;;;;;33.17;22.98;;;;;;;11.06;72.72;100214.59;5030230;28;20057;-80
2023/02/18 01:45:37;;;;;;;31.42;22.00;;;;;;;11.06;73.67;100208.44;5029771;28;20490;-81
2023/02/18 01:48:19;;;;;;;35.88;22.25;;;;;;;11.08;73.41;100194.28;5029835;28;20045;-81
2023/02/18 01:50:56;;;;;;;36.80;22.70;;;;;;;11.13;73.07;100183.50;5030363;28;20112;-80
2023/02/18 01:53:30;;;;;;;39.15;24.95;;;;;;;11.15;73.18;100168.47;5030062;28;20053;-81
2023/02/18 01:55:59;;;;;;;35.90;24.40;;;;;;;11.18;72.85;100172.72;5029755;28;20060;-80
2023/02/18 01:58:26;;;;;;;39.88;25.25;;;;;;;11.18;72.73;100176.19;5011005;28;20072;-81
2023/02/18 02:00:52;;;;;;;43.30;24.85;;;;;;;11.17;72.83;100177.13;5030806;28;20088;-81
2023/02/18 02:03:19;;;;;;;41.22;25.38;;;;;;;11.17;73.00;100165.72;5035139;28;20141;-81
2023/02/18 02:05:46;;;;;;;40.28;25.80;;;;;;;11.18;72.93;100156.91;5013112;28;20112;-81
2023/02/18 02:08:12;;;;;;;40.42;24.55;;;;;;;11.18;73.09;100149.00;5029881;28;20140;-81
2023/02/18 02:11:02;;;;;;;46.70;25.83;;;;;;;11.13;74.18;100146.59;5033901;28;20057;-81
2023/02/18 02:14:05;;;;;;;42.20;25.67;;;;;;;11.14;74.30;100135.13;5020886;28;20054;-82
2023/02/18 02:16:37;;;;;;;35.50;24.23;;;;;;;11.19;73.16;100132.25;5022838;28;20095;-82
2023/02/18 02:19:04;;;;;;;;;;;;;;;11.19;74.21;100134.91;5034079;28;20413;-82
2023/02/18 02:21:43;;;;;;;40.58;24.35;;;;;;;11.19;73.91;100142.81;5033728;28;19980;-82
2023/02/18 02:24:24;;;;;;;41.08;24.48;;;;;;;11.18;73.87;100135.84;5033410;28;20061;-82
2023/02/18 02:27:22;;;;;;;39.53;23.48;;;;;;;11.16;74.41;100127.16;5015012;28;20049;-82
2023/02/18 02:30:23;;;;;;;40.97;24.92;;;;;;;11.16;74.59;100141.19;5015758;28;20513;-82
2023/02/18 02:33:02;;;;;;;39.95;25.52;;;;;;;11.18;74.15;100130.56;5007972;28;20437;-81
2023/02/18 02:35:35;;;;;;;40.50;24.20;;;;;;;11.21;73.85;100136.50;5015623;28;20133;-81
2023/02/18 02:38:12;;;;;;;42.53;25.52;;;;;;;11.22;74.15;100126.84;5032808;28;20136;-81
2023/02/18 02:40:44;;;;;;;38.40;24.42;;;;;;;11.24;73.93;100118.81;5033293;28;20064;-81
2023/02/18 02:43:31;;;;;;;41.42;24.42;;;;;;;11.24;74.47;100124.97;5033070;28;20453;-81
2023/02/18 02:46:39;;;;;;;36.08;23.75;;;;;;;11.26;74.48;100122.25;5015333;28;20073;-81
2023/02/18 02:49:35;;;;;;;41.75;23.98;;;;;;;11.31;73.89;100123.69;5032499;28;20096;-81
2023/02/18 02:52:26;;;;;;;38.65;24.17;;;;;;;11.31;74.63;100121.06;5013442;28;20045;-81
2023/02/18 02:54:53;;;;;;;42.15;25.40;;;;;;;11.37;73.53;100116.38;5032505;28;20589;-81
2023/02/18 02:57:19;;;;;;;42.03;24.35;;;;;;;11.38;73.59;100100.50;5013015;28;20092;-81
2023/02/18 02:59:50;;;;;;;41.33;25.15;;;;;;;11.38;73.95;100094.38;5032906;28;20068;-81
2023/02/18 03:02:23;;;;;;;37.20;23.98;;;;;;;11.38;74.03;100091.72;5032781;28;20060;-81
2023/02/18 03:05:23;;;;;;;37.35;23.85;;;;;;;11.38;74.71;100091.72;5032779;28;20049;-81
2023/02/18 03:08:02;;;;;;;43.22;24.75;;;;;;;11.39;74.56;100075.84;5032344;28;20054;-81
2023/02/18 03:10:55;;;;;;;39.63;25.52;;;;;;;11.43;74.14;100082.63;5032491;28;20058;-81
2023/02/18 03:13:36;;;;;;;39.53;24.23;;;;;;;11.45;73.67;100069.38;5032417;28;20565;-82
2023/02/18 03:16:06;;;;;;;44.33;24.60;;;;;;;11.46;73.73;100058.75;5011214;28;20670;-81
2023/02/18 03:18:45;;;;;;;44.20;24.27;;;;;;;11.43;74.52;100061.56;5031932;28;20049;-81
2023/02/18 03:21:22;;;;;;;37.45;23.95;;;;;;;11.47;74.76;100056.94;5011634;28;20054;-81
2023/02/18 03:23:56;;;;;;;39.97;23.50;;;;;;;11.49;74.24;100052.44;5032570;28;20152;-81
2023/02/18 03:26:25;;;;;;;38.30;23.85;;;;;;;11.53;73.87;100050.47;5032042;28;20058;-82
2023/02/18 03:28:55;;;;;;;38.83;24.75;;;;;;;11.53;74.41;100051.34;5032074;28;20049;-81
2023/02/18 03:31:26;;;;;;;37.50;25.27;;;;;;;11.54;74.17;100052.19;5032244;28;20045;-81
2023/02/18 03:33:58;;;;;;;39.30;24.35;;;;;;;11.54;74.33;100042.50;5032472;28;20041;-81
2023/02/18 03:36:25;;;;;;;41.88;25.75;;;;;;;11.56;73.96;100035.34;5031656;28;20056;-81
2023/02/18 03:39:02;;;;;;;37.08;24.48;;;;;;;11.56;74.62;100035.34;5031852;28;20056;-81
2023/02/18 03:41:29;;;;;;;38.72;24.65;;;;;;;11.58;73.98;100028.19;5032104;28;20060;-81
2023/02/18 03:44:05;;;;;;;40.88;23.83;;;;;;;11.56;74.68;100030.06;5031910;28;20050;-81
2023/02/18 03:46:33;;;;;;;39.72;24.85;;;;;;;11.59;74.27;100018.50;5013369;28;20502;-81
2023/02/18 03:49:00;;;;;;;45.13;24.67;;;;;;;11.59;74.25;100019.34;5031981;28;20140;-81
2023/02/18 03:51:27;;;;;;;41.78;24.42;;;;;;;11.58;74.09;100017.66;5031715;28;20096;-81
2023/02/18 03:53:54;;;;;;;48.05;25.10;;;;;;;11.59;74.37;100018.50;5031662;28;20565;-81
2023/02/18 03:56:20;;;;;;;39.88;25.08;;;;;;;11.59;74.36;100021.97;5031415;28;20080;-81
2023/02/18 03:58:47;;;;;;;38.10;24.30;;;;;;;11.59;74.29;100014.06;5031271;28;20049;-81
2023/02/18 04:01:14;;;;;;;38.40;24.40;;;;;;;11.59;74.40;100014.06;5031467;28;20444;-81
2023/02/18 04:03:40;;;;;;;35.88;23.38;;;;;;;11.59;74.48;100007.97;5031779;28;20060;-81
2023/02/18 04:06:07;;;;;;;37.08;22.70;;;;;;;11.59;74.19;100000.88;5031055;28;20045;-81
2023/02/18 04:08:35;;;;;;;39.13;23.13;;;;;;;11.62;74.45;100001.66;5013601;28;20050;-81
2023/02/18 04:11:02;;;;;;;38.03;22.80;;;;;;;11.62;74.23;99999.03;5013736;28;20140;-81
2023/02/18 04:13:28;;;;;;;47.97;24.13;;;;;;;11.64;74.35;100007.69;5014001;28;20064;-80
2023/02/18 04:15:55;;;;;;;35.45;22.08;;;;;;;11.64;74.43;99997.13;5031022;28;20053;-81
2023/02/18 04:18:22;;;;;;;37.20;23.63;;;;;;;11.65;74.64;99985.66;5013440;28;20140;-81
2023/02/18 04:20:48;;;;;;;39.83;24.23;;;;;;;11.65;74.71;99983.00;5031333;28;20418;-82
2023/02/18 04:23:15;;;;;;;36.90;22.50;;;;;;;11.65;74.62;99973.31;5013872;28;20151;-81
2023/02/18 04:25:41;;;;;;;36.95;22.88;;;;;;;11.67;74.82;99962.69;5012524;28;20041;-81
2023/02/18 04:28:10;;;;;;;41.25;23.60;;;;;;;11.67;74.94;99957.41;5013245;28;20045;-81
2023/02/18 04:30:36;;;;;;;38.80;23.10;;;;;;;11.67;74.84;99952.97;5031296;28;20060;-81
2023/02/18 04:33:03;;;;;;;40.10;23.50;;;;;;;11.69;74.84;99950.25;5013439;28;20057;-80
2023/02/18 04:35:29;;;;;;;38.95;22.38;;;;;;;11.69;75.03;99945.84;5030767;28;20132;-81
2023/02/18 04:37:56;;;;;;;36.00;21.33;;;;;;;11.68;75.17;99938.88;5012847;28;20053;-81
2023/02/18 04:40:24;;;;;;;37.72;22.65;;;;;;;11.68;75.45;99940.66;5030914;28;20387;-81
2023/02/18 04:42:50;;;;;;;38.50;22.80;;;;;;;11.69;75.58;99939.72;5013273;28;20053;-82
2023/02/18 04:45:17;;;;;;;32.17;19.83;;;;;;;11.70;75.74;99936.16;5030780;28;20060;-81
2023/02/18 04:47:43;;;;;;;32.05;18.50;;;;;;;11.70;75.69;99934.34;5030261;28;20707;-81
2023/02/18 04:50:10;;;;;;;31.58;18.75;;;;;;;11.71;75.89;99933.41;5013237;28;20057;-81
2023/02/18 04:52:36;;;;;;;30.10;18.58;;;;;;;11.72;75.94;99934.25;5009727;28;20054;-81
2023/02/18 04:57:49;;;;;;;24.33;15.82;;;;;;;11.75;76.02;99917.41;4973332;23;20093;-79
2023/02/18 05:00:18;;;;;;;24.08;14.32;;;;;;;11.75;76.38;99918.28;4972580;28;20670;-79
2023/02/18 05:02:45;;;;;;;20.90;14.57;;;;;;;11.77;76.22;99932.19;4972539;28;20078;-79
2023/02/18 05:05:13;;;;;;;23.92;14.00;;;;;;;11.78;76.33;99917.22;4990927;28;20062;-79
2023/02/18 05:07:41;;;;;;;20.83;14.05;;;;;;;11.78;76.59;99918.06;4990906;28;20053;-79
2023/02/18 05:10:10;;;;;;;19.27;12.38;;;;;;;11.79;76.82;99913.66;4991477;28;20109;-79
2023/02/18 05:12:37;;;;;;;16.00;11.70;;;;;;;11.80;76.56;99904.78;4990087;28;20050;-79
2023/02/18 05:15:04;;;;;;;15.35;11.10;;;;;;;11.81;76.68;99901.22;4990932;28;20117;-79
2023/02/18 05:17:30;;;;;;;16.45;11.27;;;;;;;11.82;76.55;99900.28;4973190;28;20481;-79
2023/02/18 05:19:57;;;;;;;14.80;10.18;;;;;;;11.82;76.73;99887.94;4971698;28;20097;-79
2023/02/18 05:22:23;;;;;;;12.20;9.32;;;;;;;11.84;76.74;99880.78;4972038;28;20051;-79
2023/02/18 05:24:50;;;;;;;12.82;8.88;;;;;;;11.86;76.59;99878.06;4971641;28;20101;-79
2023/02/18 05:27:16;;;;;;;12.77;8.55;;;;;;;11.86;76.67;99878.88;4971404;28;20046;-79
2023/02/18 05:29:43;;;;;;;9.85;7.63;;;;;;;11.86;76.75;99873.63;4971615;28;20047;-79
2023/02/18 05:32:10;;;;;;;9.68;7.30;;;;;;;11.87;76.74;99866.56;4983357;28;20138;-79
2023/02/18 05:34:36;;;;;;;10.18;8.00;;;;;;;11.89;76.87;99861.19;4971594;28;20055;-79
2023/02/18 05:37:02;;;;;;;8.93;7.13;;;;;;;11.89;76.75;99851.47;4972611;28;20093;-79
2023/02/18 05:39:29;;;;;;;8.48;6.85;;;;;;;11.90;77.08;99839.16;4975621;28;20101;-79
2023/02/18 05:41:55;;;;;;;9.90;6.72;;;;;;;11.90;77.16;99831.22;4975687;28;20062;-79
2023/02/18 05:44:31;;;;;;;9.10;6.38;;;;;;;11.90;77.08;99825.97;4975483;28;20054;-79
2023/02/18 05:47:00;;;;;;;10.45;7.18;;;;;;;11.90;77.38;99824.19;4975145;28;20059;-79
2023/02/18 05:49:28;;;;;;;8.55;6.35;;;;;;;11.90;77.36;99818.03;4975346;28;20065;-79
2023/02/18 05:51:55;;;;;;;7.75;5.93;;;;;;;11.91;77.42;99811.81;4974975;28;20108;-79
2023/02/18 05:54:22;;;;;;;10.45;6.68;;;;;;;11.91;77.61;99814.47;4975057;28;20599;-79
2023/02/18 05:56:48;;;;;;;7.00;5.57;;;;;;;11.90;77.64;99800.44;4974461;28;20089;-79
2023/02/18 05:59:15;;;;;;;7.95;6.10;;;;;;;11.91;77.64;99801.28;4975183;28;20050;-79
2023/02/18 06:01:42;;;;;;;7.20;5.65;;;;;;;11.92;77.75;99795.91;4975223;28;20069;-79
2023/02/18 06:04:09;;;;;;;6.95;5.20;;;;;;;11.91;78.16;99775.75;4975318;28;20055;-79
2023/02/18 06:06:35;;;;;;;6.15;5.07;;;;;;;11.91;78.03;99783.66;4981077;28;20043;-79
2023/02/18 06:09:03;;;;;;;5.57;4.90;;;;;;;11.92;78.09;99793.25;4974879;28;20463;-79
2023/02/18 06:11:30;;;;;;;6.05;4.80;;;;;;;11.93;78.15;99789.69;4974896;28;20059;-79
2023/02/18 06:13:57;;;;;;;5.20;4.15;;;;;;;11.92;78.12;99777.44;4974913;28;20061;-79
2023/02/18 06:16:24;;;;;;;4.78;4.22;;;;;;;11.94;78.13;99774.72;4974494;28;20476;-79
2023/02/18 06:18:51;;;;;;;4.75;3.75;;;;;;;11.94;78.16;99777.34;4974667;28;20090;-79
2023/02/18 06:21:18;;;;;;;4.72;3.70;;;;;;;11.94;78.32;99777.34;4974727;28;20059;-79
2023/02/18 06:23:44;;;;;;;4.25;3.47;;;;;;;11.94;78.59;99764.16;4975005;28;20053;-79
2023/02/18 06:26:11;;;;;;;4.85;3.75;;;;;;;11.94;78.44;99761.53;4974431;28;20074;-79
2023/02/18 06:28:37;;;;;;;4.10;3.20;;;;;;;11.95;78.25;99773.75;4974367;28;20424;-79
2023/02/18 06:31:04;;;;;;;3.38;3.08;;;;;;;11.94;78.71;99769.44;4973820;28;20051;-79
2023/02/18 06:33:31;;;;;;;4.03;3.35;;;;;;;11.95;78.60;99776.41;4973906;28;20061;-79
2023/02/18 06:36:06;;;;;;;3.25;2.95;;;;;;;11.92;79.63;99761.63;4968814;28;20055;-79
2023/02/18 06:38:34;;;;;;;3.28;2.30;;;;;;;11.97;78.60;99766.63;4974311;28;20050;-79
2023/02/18 06:41:04;;;;;;;4.20;2.85;;;;;;;11.96;78.80;99781.59;4979085;28;20049;-80
2023/02/18 06:43:30;;;;;;;2.85;2.38;;;;;;;11.96;78.68;99757.00;4974018;28;20058;-78
2023/02/18 06:45:57;;;;;;;3.08;2.75;;;;;;;11.96;78.97;99767.56;4993576;28;20058;-78
2023/02/18 06:48:24;;;;;;;3.00;2.65;;;;;;;11.97;78.95;99779.81;4992607;28;20145;-78
2023/02/18 06:50:50;;;;;;;3.15;2.60;;;;;;;11.97;78.96;99762.16;4972458;28;20414;-77
2023/02/18 06:53:17;;;;;;;3.17;2.67;;;;;;;11.97;78.81;99761.34;4975001;28;20046;-77
2023/02/18 06:55:44;;;;;;;3.30;2.10;;;;;;;11.97;78.95;99759.53;4964794;28;20069;-78
2023/02/18 06:58:11;;;;;;;3.15;2.63;;;;;;;11.96;79.04;99751.72;4983345;28;20426;-77
2023/02/18 07:00:38;;;;;;;2.50;2.20;;;;;;;11.96;79.37;99742.00;4973480;28;20051;-77
2023/02/18 07:03:05;;;;;;;2.75;2.30;;;;;;;11.96;79.27;99754.38;4972560;28;20046;-77
2023/02/18 07:05:33;;;;;;;2.72;2.10;;;;;;;11.92;79.65;99748.41;4977056;28;20051;-77
2023/02/18 07:08:00;;;;;;;3.00;2.30;;;;;;;11.94;79.39;99745.69;4968187;28;20057;-77
2023/02/18 07:10:26;;;;;;;2.45;2.00;;;;;;;11.94;79.55;99748.34;4980758;28;20050;-77
2023/02/18 07:12:53;;;;;;;2.63;2.10;;;;;;;11.95;79.55;99734.19;4959386;28;20138;-77
2023/02/18 07:15:23;;;;;;;3.10;2.50;;;;;;;11.92;79.90;99734.41;4977631;28;20039;-78
2023/02/18 07:17:50;;;;;;;2.58;1.98;;;;;;;11.94;79.77;99754.47;4980819;28;20058;-77
2023/02/18 07:20:19;;;;;;;2.70;1.95;;;;;;;11.95;79.66;99742.97;4989730;28;20093;-77
2023/02/18 07:22:46;;;;;;;2.17;1.67;;;;;;;11.95;79.69;99737.69;4992493;28;20062;-77
2023/02/18 07:25:12;;;;;;;2.25;2.05;;;;;;;11.97;79.78;99737.59;4992224;28;20056;-77
2023/02/18 07:27:39;;;;;;;2.17;1.98;;;;;;;11.97;79.54;99740.22;4992175;28;20529;-77
2023/02/18 07:30:07;;;;;;;2.17;1.80;;;;;;;11.97;79.59;99735.78;4992508;28;20050;-77
2023/02/18 07:32:34;;;;;;;2.45;1.90;;;;;;;11.97;79.56;99753.44;4992711;28;20058;-77
2023/02/18 07:35:01;;;;;;;1.95;1.65;;;;;;;11.99;79.64;99740.97;4982409;28;20165;-77
2023/02/18 07:37:28;;;;;;;1.58;1.48;;;;;;;11.97;79.88;99732.31;4983577;28;20054;-78
2023/02/18 07:39:54;;;;;;;1.70;1.27;;;;;;;11.97;79.81;99729.69;4992965;28;20078;-77
2023/02/18 07:42:22;;;;;;;2.03;1.83;;;;;;;11.96;79.95;99723.53;4992943;28;20058;-77
2023/02/18 07:44:48;;;;;;;1.77;1.45;;;;;;;11.99;79.91;99723.38;4992556;28;20054;-77
2023/02/18 07:47:18;;;;;;;1.88;1.58;;;;;;;11.97;79.87;99738.44;4992171;28;20046;-77
2023/02/18 07:49:45;;;;;;;1.58;1.40;;;;;;;11.98;80.04;99740.13;4983986;28;20075;-77
2023/02/18 07:52:13;;;;;;;1.25;1.15;;;;;;;11.98;80.07;99745.41;4984404;28;20046;-76
2023/02/18 07:54:39;;;;;;;1.27;1.17;;;;;;;11.99;80.05;99730.41;4966985;28;20050;-77
2023/02/18 07:57:06;;;;;;;1.52;1.15;;;;;;;11.97;80.29;99733.16;4991719;28;20053;-76
2023/02/18 07:59:32;;;;;;;1.13;1.02;;;;;;;11.97;80.15;99733.16;4992258;28;20081;-76
2023/02/18 08:01:59;;;;;;;5.10;1.30;;;;;;;11.97;80.45;99742.88;4987097;28;20128;-77
2023/02/18 08:04:26;;;;;;;1.13;1.02;;;;;;;11.95;80.70;99734.19;4981985;28;20069;-77
2023/02/18 08:06:52;;;;;;;1.20;1.10;;;;;;;11.96;80.53;99749.09;4983359;28;20051;-77
2023/02/18 08:09:19;;;;;;;1.35;1.02;;;;;;;11.95;80.50;99737.69;4981876;28;20054;-77
2023/02/18 08:11:45;;;;;;;1.13;1.02;;;;;;;11.93;80.73;99739.56;4979149;28;20057;-76
2023/02/18 08:14:12;;;;;;;1.10;1.00;;;;;;;11.94;80.84;99732.50;4978223;28;20078;-77
2023/02/18 08:16:39;;;;;;;1.25;1.15;;;;;;;11.95;81.00;99727.13;4971959;28;20050;-76
2023/02/18 08:19:06;;;;;;;1.25;1.15;;;;;;;11.95;81.18;99728.91;4972640;28;20491;-76
2023/02/18 08:21:33;;;;;;;1.38;1.27;;;;;;;11.95;81.01;99737.69;4974323;28;20454;-76
2023/02/18 08:24:00;;;;;;;1.67;1.58;;;;;;;11.96;81.20;99741.19;4972787;28;20051;-77
2023/02/18 08:26:28;;;;;;;2.13;1.92;;;;;;;11.96;81.29;99735.91;4966686;28;20524;-76
2023/02/18 08:28:54;;;;;;;3.15;2.40;;;;;;;11.96;80.97;99741.19;4970904;28;20053;-76
2023/02/18 08:31:24;;;;;;;2.95;2.50;;;;;;;11.96;81.33;99751.72;4972138;28;20127;-77
2023/02/18 08:33:53;;;;;;;2.70;2.45;;;;;;;11.96;81.25;99751.72;4954763;28;20061;-76
2023/02/18 08:36:20;;;;;;;3.30;2.97;;;;;;;11.96;81.28;99752.56;4961369;28;20051;-77
2023/02/18 08:38:47;;;;;;;4.60;4.03;;;;;;;11.96;81.43;99746.47;4972076;28;20055;-76
2023/02/18 08:41:15;;;;;;;4.72;4.03;;;;;;;11.96;81.47;99733.28;4972381;28;20130;-77
2023/02/18 08:43:42;;;;;;;4.85;3.85;;;;;;;11.96;81.46;99735.91;4971868;28;20133;-76
2023/02/18 08:46:08;;;;;;;4.22;3.70;;;;;;;11.96;81.22;99730.63;4976854;28;20057;-76
2023/02/18 08:48:42;;;;;;;4.00;3.47;;;;;;;11.96;81.40;99731.47;4977861;28;20050;-76
2023/02/18 08:51:17;;;;;;;3.60;3.30;;;;;;;11.94;81.43;99737.78;4991685;28;20050;-77
2023/02/18 08:53:45;;;;;;;4.60;2.55;;;;;;;11.97;81.51;99733.16;4984665;28;20050;-76
2023/02/18 08:56:13;;;;;;;1.85;1.75;;;;;;;11.98;81.39;99737.50;4990998;28;20054;-76
2023/02/18 08:58:41;;;;;;;2.85;2.30;;;;;;;11.99;81.60;99733.06;4990894;28;20105;-77
2023/02/18 09:01:09;;;;;;;3.13;2.00;;;;;;;12.01;81.56;99732.97;4991435;28;20549;-76
2023/02/18 09:03:37;;;;;;;2.03;1.83;;;;;;;12.01;81.69;99736.47;4991473;28;20054;-77
2023/02/18 09:06:04;;;;;;;2.38;1.92;;;;;;;12.02;81.70;99740.78;4989818;28;20050;-76
2023/02/18 09:08:31;;;;;;;1.60;1.50;;;;;;;12.02;81.73;99739.91;4990947;28;20060;-76
2023/02/18 09:11:00;;;;;;;1.73;1.63;;;;;;;12.00;81.58;99737.38;4991042;28;20054;-77
2023/02/18 09:13:27;;;;;;;1.70;1.60;;;;;;;11.99;81.68;99741.81;4990144;28;20052;-77
2023/02/18 09:16:02;;;;;;;2.13;1.92;;;;;;;11.97;81.58;99730.50;4990823;28;20116;-76
2023/02/18 09:18:29;;;;;;;3.05;2.13;;;;;;;11.98;81.73;99736.66;4973760;28;20057;-77
2023/02/18 09:20:57;;;;;;;2.63;2.00;;;;;;;11.99;81.97;99717.22;4991281;28;20134;-77
2023/02/18 09:23:26;;;;;;;2.85;2.40;;;;;;;11.99;81.91;99738.34;4973942;28;20154;-77
2023/02/18 09:25:53;;;;;;;4.35;2.65;;;;;;;11.97;81.36;99733.16;4973327;28;20050;-78
2023/02/18 09:28:20;;;;;;;4.28;3.10;;;;;;;11.98;81.62;99728.72;4990993;28;20057;-77
2023/02/18 09:30:47;;;;;;;2.65;2.40;;;;;;;11.99;81.37;99714.59;4991074;28;20495;-76
2023/02/18 09:33:14;;;;;;;3.55;2.97;;;;;;;12.00;81.48;99716.28;4991178;28;20050;-77
2023/02/18 09:35:43;;;;;;;4.18;3.08;;;;;;;11.99;81.28;99727.78;4973220;28;20046;-77
2023/02/18 09:38:12;;;;;;;5.38;3.38;;;;;;;11.97;81.00;99729.69;4990578;28;20054;-76
2023/02/18 09:40:44;;;;;;;3.33;2.90;;;;;;;11.95;81.29;99708.66;4990928;28;20058;-77
2023/02/18 09:43:21;;;;;;;4.05;3.10;;;;;;;11.92;81.03;99750.22;4988308;28;20047;-76
2023/02/18 09:45:50;;;;;;;3.75;3.15;;;;;;;11.94;81.17;99714.91;4972679;28;20130;-76
2023/02/18 09:48:16;;;;;;;4.43;3.20;;;;;;;11.93;81.33;99707.91;4960440;28;20034;-77
2023/02/18 09:50:50;;;;;;;4.80;3.45;;;;;;;11.91;81.33;99706.31;4986552;28;20058;-77
2023/02/18 09:53:17;;;;;;;5.40;3.38;;;;;;;11.92;81.39;99705.41;4978654;28;20051;-77
2023/02/18 09:55:45;;;;;;;4.68;3.53;;;;;;;11.92;81.36;99715.94;4983363;28;20150;-76
2023/02/18 09:58:22;;;;;;;5.60;3.97;;;;;;;11.88;80.74;99722.34;4990664;28;20137;-77
2023/02/18 10:00:53;;;;;;;6.60;4.35;;;;;;;11.88;80.87;99727.63;4973567;28;20057;-76
2023/02/18 10:03:22;;;;;;;8.40;4.70;;;;;;;11.89;80.83;99726.69;4977958;28;20142;-76
2023/02/18 10:05:54;;;;;;;11.10;5.03;;;;;;;11.88;80.71;99717.09;4981666;28;20504;-76
2023/02/18 10:08:26;;;;;;;6.80;4.47;;;;;;;11.84;80.48;99722.53;4982233;28;20133;-77
2023/02/18 10:10:53;;;;;;;6.77;4.80;;;;;;;11.85;80.98;99736.59;4966593;28;20129;-77
2023/02/18 10:13:23;;;;;;;10.00;5.15;;;;;;;11.84;81.02;99737.50;4979163;28;20050;-76
2023/02/18 10:15:53;;;;;;;;;;;;;;;11.80;80.10;99736.84;4954504;28;20046;-76
2023/02/18 10:18:38;;;;;;;7.68;4.28;;;;;;;11.78;79.73;99727.34;4953740;28;20291;-76
2023/02/18 10:21:18;;;;;;;8.15;5.05;;;;;;;11.78;80.23;99733.47;4971452;28;20141;-77
2023/02/18 10:24:00;;;;;;;10.25;4.30;;;;;;;11.69;80.05;99736.66;4972226;28;20397;-77
2023/02/18 10:26:30;;;;;;;8.57;3.90;;;;;;;11.70;80.28;99746.31;4974321;28;20464;-76
2023/02/18 10:28:58;;;;;;;10.38;4.07;;;;;;;11.66;80.59;99728.97;4974476;28;20062;-76
2023/02/18 10:31:31;;;;;;;9.48;3.90;;;;;;;11.59;80.31;99726.69;4974693;28;20043;-76
2023/02/18 10:34:20;;;;;;;;;;;;;;;11.56;79.75;99750.59;4957956;28;20145;-77
2023/02/18 10:36:54;;;;;;;7.78;3.50;;;;;;;11.59;80.55;99745.16;4974247;28;19929;-76
2023/02/18 10:39:59;;;;;;;10.00;3.83;;;;;;;11.57;81.09;99754.97;4974484;28;20415;-75
2023/02/18 10:42:39;;;;;;;11.73;4.18;;;;;;;11.50;80.77;99745.72;4933234;29;20083;-76
2023/02/18 10:45:47;;;;;;;5.78;3.42;;;;;;;11.48;80.98;99750.25;4933032;29;20143;-76
2023/02/18 10:48:32;;;;;;;7.15;3.72;;;;;;;11.49;81.11;99722.94;4950802;28;20146;-76
2023/02/18 10:51:05;;;;;;;5.38;3.20;;;;;;;11.47;80.98;99746.75;4973017;28;20061;-77
2023/02/18 10:53:39;;;;;;;4.00;3.08;;;;;;;11.46;81.25;99755.63;4974463;28;20054;-76
2023/02/18 10:56:06;;;;;;;;;;;;;;;11.44;80.74;99746.94;4974172;28;20059;-76
2023/02/18 10:58:44;;;;;;;4.30;2.28;;;;;;;11.45;80.79;99747.78;4858765;23;19925;-77
2023/02/18 11:01:18;;;;;;;4.63;2.38;;;;;;;11.42;80.88;99753.25;4993446;28;20562;-76
2023/02/18 11:03:47;;;;;;;5.70;2.55;;;;;;;11.42;81.55;99769.06;4993682;28;20042;-76
2023/02/18 11:06:20;;;;;;;2.67;2.30;;;;;;;11.39;81.46;99763.97;4991818;28;20574;-76
2023/02/18 11:08:48;;;;;;;4.10;2.67;;;;;;;11.40;81.74;99755.97;4991908;28;20050;-77
2023/02/18 11:11:19;;;;;;;4.13;2.60;;;;;;;11.39;81.71;99754.28;4992231;28;20042;-76
2023/02/18 11:13:55;;;;;;;4.32;2.60;;;;;;;11.38;81.58;99746.47;4993692;28;20154;-76
2023/02/18 11:16:23;;;;;;;4.95;2.60;;;;;;;11.38;81.90;99765.78;4993025;28;20046;-76
2023/02/18 11:18:49;;;;;;;3.80;2.15;;;;;;;11.39;81.78;99758.69;4992862;28;20149;-77
2023/02/18 11:21:21;;;;;;;2.85;2.60;;;;;;;11.37;81.80;99763.22;4993474;28;20064;-77
2023/02/18 11:23:53;;;;;;;3.45;2.45;;;;;;;11.40;82.05;99768.31;4993123;28;20046;-77
2023/02/18 11:26:32;;;;;;;3.80;2.38;;;;;;;11.38;81.95;99752.59;4992970;28;20051;-76
2023/02/18 11:29:05;;;;;;;4.43;2.40;;;;;;;11.41;81.99;99772.66;4993234;28;20406;-77
2023/02/18 11:31:44;;;;;;;2.33;1.92;;;;;;;11.40;81.77;99771.78;4993138;28;20101;-76
2023/02/18 11:34:21;;;;;;;2.30;2.10;;;;;;;11.40;81.62;99753.34;4992747;28;20054;-76
2023/02/18 11:36:49;;;;;;;2.50;1.83;;;;;;;11.43;81.80;99768.13;4992298;28;20138;-75
2023/02/18 11:39:23;;;;;;;4.32;2.10;;;;;;;11.42;81.98;99759.38;4992999;28;20046;-76
2023/02/18 11:42:00;;;;;;;3.58;2.20;;;;;;;11.39;81.69;99761.34;4991778;28;20146;-77